createdAt,value
2022-08-19T00:01:32.892Z,3.05
2022-08-19T00:04:08.015Z,2.55
2022-08-19T00:06:36.484Z,3.50
2022-08-19T00:09:06.345Z,3.30
2022-08-19T00:11:35.626Z,3.40
2022-08-19T00:14:02.474Z,5.18
2022-08-19T00:16:29.545Z,5.82
2022-08-19T00:18:57.110Z,6.10
2022-08-19T00:21:25.098Z,5.65
2022-08-19T00:23:51.774Z,5.32
2022-08-19T00:26:18.676Z,5.07
2022-08-19T00:28:45.395Z,5.20
2022-08-19T00:31:12.115Z,5.07
2022-08-19T00:33:39.063Z,6.40
2022-08-19T00:36:08.443Z,6.28
2022-08-19T00:38:38.066Z,10.18
2022-08-19T00:41:09.729Z,7.10
2022-08-19T00:43:36.454Z,9.93
2022-08-19T00:46:05.598Z,9.32
2022-08-19T00:48:34.521Z,10.27
2022-08-19T00:51:02.264Z,9.48
2022-08-19T00:53:32.375Z,11.55
2022-08-19T00:56:01.959Z,9.50
2022-08-19T00:58:32.896Z,9.48
2022-08-19T01:01:01.608Z,9.20
2022-08-19T01:03:28.731Z,9.15
2022-08-19T01:06:16.091Z,8.55
2022-08-19T01:08:47.376Z,8.30
2022-08-19T01:11:17.694Z,7.00
2022-08-19T01:13:49.925Z,8.00
2022-08-19T01:16:20.028Z,8.05
2022-08-19T01:18:47.552Z,7.63
2022-08-19T01:21:32.509Z,7.50
2022-08-19T01:23:59.935Z,7.00
2022-08-19T01:26:27.889Z,7.68
2022-08-19T01:28:57.440Z,10.05
2022-08-19T01:31:33.310Z,7.65
2022-08-19T01:34:01.786Z,7.30
2022-08-19T01:36:31.300Z,8.48
2022-08-19T01:38:59.084Z,8.60
2022-08-19T01:41:26.450Z,9.63
2022-08-19T01:44:13.394Z,8.25
2022-08-19T01:46:42.634Z,7.50
2022-08-19T01:49:09.956Z,6.68
2022-08-19T01:51:39.767Z,6.25
2022-08-19T01:54:09.387Z,6.60
2022-08-19T01:56:36.498Z,7.32
2022-08-19T01:59:11.404Z,8.17
2022-08-19T02:01:38.367Z,7.72
2022-08-19T02:04:06.693Z,9.13
2022-08-19T02:06:34.150Z,7.68
2022-08-19T02:09:01.404Z,8.27
2022-08-19T02:11:34.699Z,8.97
2022-08-19T02:14:03.415Z,8.27
2022-08-19T02:16:31.502Z,6.60
2022-08-19T02:19:01.354Z,6.47
2022-08-19T02:21:30.094Z,7.80
2022-08-19T02:23:57.305Z,8.63
2022-08-19T02:26:24.677Z,9.02
2022-08-19T02:28:51.392Z,9.43
2022-08-19T02:31:22.716Z,7.72
2022-08-19T02:33:53.506Z,12.32
2022-08-19T02:36:24.732Z,10.30
2022-08-19T02:38:55.100Z,8.55
2022-08-19T02:41:28.284Z,7.80
2022-08-19T02:44:22.906Z,8.07
2022-08-19T02:46:48.012Z,8.23
2022-08-19T02:49:18.916Z,7.93
2022-08-19T02:51:46.746Z,9.48
2022-08-19T02:54:14.775Z,10.32
2022-08-19T02:56:43.663Z,8.75
2022-08-19T02:59:11.105Z,11.18
2022-08-19T03:01:41.244Z,11.80
2022-08-19T03:04:09.769Z,10.15
2022-08-19T03:06:39.096Z,9.90
2022-08-19T03:09:05.842Z,11.75
2022-08-19T03:11:33.937Z,9.75
2022-08-19T03:14:01.934Z,10.83
2022-08-19T03:16:33.200Z,10.82
2022-08-19T03:19:02.373Z,9.18
2022-08-19T03:21:31.857Z,10.18
2022-08-19T03:24:00.757Z,9.00
2022-08-19T03:26:28.150Z,11.10
2022-08-19T03:28:58.544Z,10.88
2022-08-19T03:31:44.644Z,13.05
2022-08-19T03:34:24.011Z,9.80
2022-08-19T03:36:50.773Z,9.88
2022-08-19T03:39:18.457Z,10.23
2022-08-19T03:41:48.575Z,9.70
2022-08-19T03:44:18.918Z,9.07
2022-08-19T03:46:48.834Z,10.10
2022-08-19T03:49:18.266Z,10.75
2022-08-19T03:51:47.211Z,10.23
2022-08-19T03:54:16.224Z,9.75
2022-08-19T03:56:45.445Z,10.73
2022-08-19T03:59:15.808Z,11.20
2022-08-19T04:01:43.270Z,13.18
2022-08-19T04:04:10.097Z,15.23
2022-08-19T04:06:39.616Z,11.18
2022-08-19T04:09:09.726Z,10.80
2022-08-19T04:11:44.532Z,11.25
2022-08-19T04:14:15.043Z,9.15
2022-08-19T04:16:42.596Z,11.07
2022-08-19T04:19:09.327Z,10.23
2022-08-19T04:21:36.367Z,9.05
2022-08-19T04:24:04.149Z,9.43
2022-08-19T04:26:33.869Z,10.45
2022-08-19T04:29:02.395Z,9.87
2022-08-19T04:31:31.704Z,9.95
2022-08-19T04:34:00.504Z,8.45
2022-08-19T04:36:31.414Z,10.05
2022-08-19T04:39:00.317Z,9.82
2022-08-19T04:41:46.042Z,9.20
2022-08-19T04:44:14.279Z,12.57
2022-08-19T04:46:51.509Z,12.70
2022-08-19T04:49:25.094Z,12.25
2022-08-19T04:51:55.195Z,11.00
2022-08-19T04:54:37.506Z,12.60
2022-08-19T04:57:09.463Z,12.52
2022-08-19T04:59:38.390Z,13.43
2022-08-19T05:02:07.142Z,12.23
2022-08-19T05:04:34.507Z,12.73
2022-08-19T05:07:02.371Z,13.33
2022-08-19T05:09:42.124Z,14.38
2022-08-19T05:12:18.455Z,16.75
2022-08-19T05:14:48.139Z,15.73
2022-08-19T05:17:36.032Z,12.55
2022-08-19T05:20:21.461Z,14.07
2022-08-19T05:22:48.893Z,13.43
2022-08-19T05:25:21.421Z,13.98
2022-08-19T05:27:48.799Z,12.50
2022-08-19T05:30:17.133Z,11.27
2022-08-19T05:32:44.531Z,12.40
2022-08-19T05:35:12.630Z,13.35
2022-08-19T05:37:41.315Z,13.10
2022-08-19T05:40:09.971Z,11.60
2022-08-19T05:42:36.814Z,12.85
2022-08-19T05:45:05.392Z,11.30
2022-08-19T05:47:33.026Z,13.93
2022-08-19T05:50:00.257Z,12.70
2022-08-19T05:52:28.111Z,14.82
2022-08-19T05:54:56.754Z,17.20
2022-08-19T05:57:24.762Z,16.73
2022-08-19T05:59:53.314Z,18.42
2022-08-19T06:02:29.620Z,16.60
2022-08-19T06:04:56.424Z,14.30
2022-08-19T06:07:23.691Z,17.42
2022-08-19T06:09:59.152Z,17.60
2022-08-19T06:12:35.028Z,17.60
2022-08-19T06:15:08.584Z,15.35
2022-08-19T06:17:36.147Z,16.70
2022-08-19T06:20:08.550Z,16.30
2022-08-19T06:22:44.286Z,13.83
2022-08-19T06:25:13.439Z,16.33
2022-08-19T06:27:58.653Z,17.13
2022-08-19T06:30:28.286Z,17.92
2022-08-19T06:32:55.018Z,18.33
2022-08-19T06:35:21.855Z,16.43
2022-08-19T06:37:48.729Z,17.10
2022-08-19T06:40:15.467Z,16.70
2022-08-19T06:42:54.162Z,17.50
2022-08-19T06:45:24.587Z,16.45
2022-08-19T06:47:56.750Z,14.47
2022-08-19T06:50:25.023Z,17.42
2022-08-19T06:52:52.481Z,18.20
2022-08-19T06:55:20.026Z,17.58
2022-08-19T06:57:49.196Z,18.25
2022-08-19T07:00:16.879Z,19.97
2022-08-19T07:02:49.556Z,21.40
2022-08-19T07:05:22.951Z,20.58
2022-08-19T07:07:49.770Z,19.23
2022-08-19T07:10:18.587Z,18.00
2022-08-19T07:12:45.622Z,17.47
2022-08-19T07:15:12.931Z,19.85
2022-08-19T07:17:41.702Z,19.88
2022-08-19T07:20:10.269Z,16.65
2022-08-19T07:22:39.508Z,17.55
2022-08-19T07:25:08.397Z,19.53
2022-08-19T07:27:35.652Z,21.33
2022-08-19T07:30:03.115Z,17.00
2022-08-19T07:32:31.715Z,13.48
2022-08-19T07:35:01.410Z,14.88
2022-08-19T07:37:33.021Z,13.73
2022-08-19T07:40:02.256Z,17.65
2022-08-19T07:42:30.810Z,17.70
2022-08-19T07:44:59.696Z,16.73
2022-08-19T07:47:47.866Z,14.23
2022-08-19T07:50:17.059Z,14.93
2022-08-19T07:52:48.800Z,13.95
2022-08-19T07:55:40.021Z,17.13
2022-08-19T07:58:05.780Z,20.85
2022-08-19T08:00:32.513Z,20.73
2022-08-19T08:02:59.275Z,17.70
2022-08-19T08:05:45.371Z,19.27
2022-08-19T08:08:32.363Z,18.92
2022-08-19T08:11:00.861Z,19.55
2022-08-19T08:13:28.882Z,18.67
2022-08-19T08:15:56.594Z,17.87
2022-08-19T08:18:27.722Z,19.23
2022-08-19T08:20:58.764Z,18.25
2022-08-19T08:26:29.264Z,17.75
2022-08-19T08:28:57.212Z,13.67
2022-08-19T08:31:24.503Z,17.10
2022-08-19T08:33:51.226Z,13.38
2022-08-19T08:36:18.787Z,13.75
2022-08-19T08:38:49.072Z,14.25
2022-08-19T08:41:30.989Z,15.57
2022-08-19T08:43:58.553Z,15.30
2022-08-19T08:46:41.939Z,13.02
2022-08-19T08:49:31.893Z,14.63
2022-08-19T08:52:19.520Z,13.02
2022-08-19T08:54:55.359Z,12.20
2022-08-19T08:57:42.449Z,15.32
2022-08-19T09:00:18.082Z,12.65
2022-08-19T09:02:50.626Z,12.75
2022-08-19T09:05:22.334Z,14.30
2022-08-19T09:08:26.639Z,14.07
2022-08-19T09:10:56.089Z,11.38
2022-08-19T09:13:37.272Z,14.23
2022-08-19T09:16:12.644Z,17.13
2022-08-19T09:18:47.891Z,12.27
2022-08-19T09:21:16.339Z,13.57
2022-08-19T09:23:44.606Z,14.00
2022-08-19T09:26:16.520Z,14.60
2022-08-19T09:28:49.367Z,14.95
2022-08-19T09:31:20.014Z,12.57
2022-08-19T09:33:48.453Z,11.40
2022-08-19T09:36:24.302Z,12.07
2022-08-19T09:39:01.503Z,15.23
2022-08-19T09:41:29.053Z,12.05
2022-08-19T09:43:58.111Z,18.25
2022-08-19T09:46:31.495Z,13.33
2022-08-19T09:49:06.145Z,13.65
2022-08-19T09:51:35.021Z,14.80
2022-08-19T09:54:04.864Z,18.08
2022-08-19T09:56:34.062Z,15.65
2022-08-19T09:59:04.024Z,12.70
2022-08-19T10:01:33.417Z,13.75
2022-08-19T10:04:04.450Z,13.73
2022-08-19T10:06:44.071Z,14.23
2022-08-19T10:09:15.945Z,13.82
2022-08-19T10:11:54.696Z,14.17
2022-08-19T10:14:24.346Z,17.42
2022-08-19T10:16:52.766Z,15.73
2022-08-19T10:19:25.324Z,14.25
2022-08-19T10:21:54.284Z,16.10
2022-08-19T10:24:26.603Z,12.70
2022-08-19T10:26:55.876Z,12.80
2022-08-19T10:29:32.304Z,14.02
2022-08-19T10:32:02.637Z,15.15
2022-08-19T10:34:31.490Z,14.75
2022-08-19T10:37:00.500Z,16.83
2022-08-19T10:39:41.109Z,14.85
2022-08-19T10:42:11.651Z,18.25
2022-08-19T10:44:38.746Z,15.80
2022-08-19T10:47:21.976Z,20.17
2022-08-19T10:50:13.053Z,20.20
2022-08-19T10:52:50.122Z,20.10
2022-08-19T10:55:39.701Z,21.33
2022-08-19T10:58:14.850Z,19.13
2022-08-19T11:00:44.208Z,19.85
2022-08-19T11:03:11.393Z,15.33
2022-08-19T11:05:40.194Z,19.30
2022-08-19T11:08:22.114Z,18.13
2022-08-19T11:10:51.440Z,22.08
2022-08-19T11:13:18.407Z,16.75
2022-08-19T11:15:46.810Z,18.90
2022-08-19T11:18:13.763Z,18.02
2022-08-19T11:20:40.650Z,20.85
2022-08-19T11:23:07.472Z,18.23
2022-08-19T11:25:35.444Z,16.50
2022-08-19T11:28:02.363Z,15.20
2022-08-19T11:30:29.040Z,18.58
2022-08-19T11:32:55.758Z,22.70
2022-08-19T11:35:24.386Z,18.58
2022-08-19T11:37:51.122Z,18.63
2022-08-19T11:40:18.086Z,18.07
2022-08-19T11:42:57.138Z,16.42
2022-08-19T11:45:28.999Z,14.68
2022-08-19T11:47:56.973Z,18.23
2022-08-19T11:50:24.660Z,16.63
2022-08-19T11:52:55.964Z,21.00
2022-08-19T11:55:23.297Z,17.98
2022-08-19T11:57:50.618Z,17.88
2022-08-19T12:00:17.455Z,20.85
2022-08-19T12:02:44.423Z,19.38
2022-08-19T12:05:12.831Z,19.00
2022-08-19T12:07:41.816Z,20.75
2022-08-19T12:10:09.240Z,25.52
2022-08-19T12:12:43.586Z,24.88
2022-08-19T12:15:11.857Z,20.20
2022-08-19T12:17:39.041Z,21.77
2022-08-19T12:20:07.925Z,19.95
2022-08-19T12:22:35.912Z,18.10
2022-08-19T12:25:02.781Z,20.92
2022-08-19T12:27:40.170Z,22.88
2022-08-19T12:30:11.034Z,20.90
2022-08-19T12:32:38.519Z,17.63
2022-08-19T12:35:06.079Z,19.08
2022-08-19T12:37:33.531Z,19.58
2022-08-19T12:40:00.677Z,22.70
2022-08-19T12:42:27.884Z,22.13
2022-08-19T12:44:54.975Z,20.95
2022-08-19T12:47:22.033Z,21.83
2022-08-19T12:49:53.839Z,18.83
2022-08-19T12:52:24.921Z,20.77
2022-08-19T12:54:55.257Z,20.80
2022-08-19T12:57:32.801Z,20.55
2022-08-19T13:00:14.294Z,21.40
2022-08-19T13:02:45.603Z,22.70
2022-08-19T13:05:16.754Z,19.13
2022-08-19T13:07:44.913Z,18.90
2022-08-19T13:10:16.251Z,22.95
2022-08-19T13:12:44.340Z,20.80
2022-08-19T13:15:12.211Z,20.02
2022-08-19T13:17:40.855Z,21.00
2022-08-19T13:20:10.749Z,17.73
2022-08-19T13:22:38.437Z,20.48
2022-08-19T13:25:06.906Z,20.08
2022-08-19T13:27:34.034Z,22.00
2022-08-19T13:30:20.365Z,19.50
2022-08-19T13:33:05.956Z,18.17
2022-08-19T13:35:32.749Z,18.88
2022-08-19T13:38:00.921Z,16.75
2022-08-19T13:40:27.894Z,20.35
2022-08-19T13:42:55.999Z,15.82
2022-08-19T13:45:25.574Z,16.90
2022-08-19T13:47:59.184Z,18.75
2022-08-19T13:50:30.173Z,21.88
2022-08-19T13:52:57.491Z,18.15
2022-08-19T13:55:25.541Z,16.92
2022-08-19T13:57:57.812Z,16.80
2022-08-19T14:00:27.474Z,21.08
2022-08-19T14:02:57.648Z,19.95
2022-08-19T14:05:26.302Z,18.77
2022-08-19T14:07:53.337Z,17.10
2022-08-19T14:10:21.621Z,15.13
2022-08-19T14:12:48.898Z,16.98
2022-08-19T14:15:16.550Z,16.58
2022-08-19T14:17:45.507Z,15.73
2022-08-19T14:20:18.358Z,19.38
2022-08-19T14:22:47.076Z,17.67
2022-08-19T14:25:17.730Z,17.77
2022-08-19T14:27:45.386Z,18.20
2022-08-19T14:30:16.369Z,15.30
2022-08-19T14:32:44.374Z,15.55
2022-08-19T14:35:15.478Z,16.80
2022-08-19T14:37:45.698Z,15.82
2022-08-19T14:40:15.942Z,20.05
2022-08-19T14:42:43.618Z,14.90
2022-08-19T14:45:12.020Z,21.27
2022-08-19T14:47:39.855Z,17.87
2022-08-19T14:50:18.398Z,21.30
2022-08-19T14:52:48.750Z,20.08
2022-08-19T14:55:19.256Z,20.98
2022-08-19T14:57:46.206Z,20.63
2022-08-19T15:00:14.231Z,19.47
2022-08-19T15:02:42.513Z,19.52
2022-08-19T15:05:09.810Z,24.33
2022-08-19T15:07:37.747Z,23.33
2022-08-19T15:10:07.741Z,25.35
2022-08-19T15:12:43.452Z,20.43
2022-08-19T15:15:15.043Z,22.63
2022-08-19T15:17:45.488Z,40.90
2022-08-19T15:20:21.255Z,31.42
2022-08-19T15:22:48.259Z,45.42
2022-08-19T15:25:19.514Z,34.20
2022-08-19T15:27:46.641Z,30.60
2022-08-19T15:30:20.945Z,30.92
2022-08-19T15:32:49.156Z,24.17
2022-08-19T15:35:16.477Z,25.92
2022-08-19T15:37:44.492Z,22.60
2022-08-19T15:40:12.022Z,20.17
2022-08-19T15:42:43.533Z,24.73
2022-08-19T15:45:12.944Z,32.35
2022-08-19T15:47:40.902Z,21.95
2022-08-19T15:50:17.403Z,25.87
2022-08-19T15:52:55.596Z,43.50
2022-08-19T15:55:33.945Z,44.17
2022-08-19T15:58:29.010Z,38.60
2022-08-19T16:01:37.107Z,35.33
2022-08-19T16:04:26.065Z,34.03
2022-08-19T16:06:57.518Z,28.08
2022-08-19T16:09:29.146Z,30.80
2022-08-19T16:12:01.765Z,24.05
2022-08-19T16:14:31.551Z,21.65
2022-08-19T16:16:58.694Z,21.00
2022-08-19T16:19:25.760Z,21.27
2022-08-19T16:21:55.444Z,23.27
2022-08-19T16:24:26.305Z,22.95
2022-08-19T16:26:53.237Z,27.92
2022-08-19T16:29:33.343Z,23.93
2022-08-19T16:32:06.279Z,23.08
2022-08-19T16:34:33.781Z,24.15
2022-08-19T16:37:01.584Z,22.45
2022-08-19T16:39:28.354Z,28.65
2022-08-19T16:41:55.324Z,24.47
2022-08-19T16:44:22.141Z,25.73
2022-08-19T16:46:58.839Z,22.98
2022-08-19T16:49:53.210Z,29.30
2022-08-19T16:52:19.127Z,27.58
2022-08-19T16:54:47.329Z,24.97
2022-08-19T16:57:14.160Z,25.45
2022-08-19T16:59:43.669Z,30.13
2022-08-19T17:02:16.639Z,30.05
2022-08-19T17:04:43.324Z,26.90
2022-08-19T17:07:10.723Z,27.43
2022-08-19T17:09:38.059Z,25.35
2022-08-19T17:12:05.670Z,24.83
2022-08-19T17:14:33.251Z,23.98
2022-08-19T17:17:00.619Z,28.20
2022-08-19T17:19:28.223Z,33.70
2022-08-19T17:21:55.180Z,25.00
2022-08-19T17:24:22.133Z,23.88
2022-08-19T17:26:48.872Z,26.17
2022-08-19T17:29:16.248Z,23.40
2022-08-19T17:31:43.387Z,23.10
2022-08-19T17:34:10.412Z,22.75
2022-08-19T17:36:38.063Z,25.10
2022-08-19T17:39:05.549Z,24.15
2022-08-19T17:41:34.205Z,22.67
2022-08-19T17:44:04.495Z,21.57
2022-08-19T17:46:33.974Z,23.25
2022-08-19T17:49:00.815Z,24.05
2022-08-19T17:51:33.311Z,20.30
2022-08-19T17:54:00.713Z,21.17
2022-08-19T17:56:28.766Z,23.97
2022-08-19T17:59:00.155Z,24.30
2022-08-19T18:01:49.859Z,27.58
2022-08-19T18:04:18.616Z,24.73
2022-08-19T18:06:46.880Z,24.63
2022-08-19T18:09:20.798Z,21.33
2022-08-19T18:11:52.682Z,25.55
2022-08-19T18:14:33.019Z,25.88
2022-08-19T18:17:05.456Z,24.55
2022-08-19T18:19:41.400Z,23.13
2022-08-19T18:22:25.786Z,21.23
2022-08-19T18:24:52.805Z,24.35
2022-08-19T18:27:19.811Z,25.25
2022-08-19T18:29:46.571Z,22.10
2022-08-19T18:32:17.095Z,26.52
2022-08-19T18:34:48.161Z,31.07
2022-08-19T18:37:14.923Z,23.38
2022-08-19T18:40:00.159Z,22.30
2022-08-19T18:42:45.567Z,20.52
2022-08-19T18:45:31.563Z,21.08
2022-08-19T18:48:26.933Z,18.97
2022-08-19T18:50:59.357Z,20.48
2022-08-19T18:53:29.346Z,21.77
2022-08-19T18:55:56.786Z,23.02
2022-08-19T18:58:33.807Z,25.30
2022-08-19T19:01:11.116Z,23.90
2022-08-19T19:03:47.668Z,24.02
2022-08-19T19:06:22.457Z,21.08
2022-08-19T19:08:51.177Z,23.48
2022-08-19T19:11:23.864Z,22.08
2022-08-19T19:13:51.323Z,19.77
2022-08-19T19:16:22.406Z,18.65
2022-08-19T19:18:52.733Z,22.30
2022-08-19T19:21:22.973Z,20.02
2022-08-19T19:23:50.971Z,20.77
2022-08-19T19:26:18.004Z,20.97
2022-08-19T19:28:46.168Z,21.13
2022-08-19T19:31:19.855Z,21.83
2022-08-19T19:33:46.840Z,19.33
2022-08-19T19:36:14.059Z,17.95
2022-08-19T19:38:48.260Z,23.13
2022-08-19T19:41:24.493Z,21.77
2022-08-19T19:44:23.074Z,17.92
2022-08-19T19:46:43.503Z,22.05
2022-08-19T19:49:11.272Z,22.38
2022-08-19T19:51:39.434Z,21.67
2022-08-19T19:54:08.115Z,20.50
2022-08-19T19:56:35.336Z,24.95
2022-08-19T19:59:03.773Z,21.20
2022-08-19T20:01:30.815Z,20.63
2022-08-19T20:04:01.542Z,22.07
2022-08-19T20:06:29.134Z,19.92
2022-08-19T20:09:10.351Z,22.50
2022-08-19T20:11:44.246Z,21.20
2022-08-19T20:14:28.514Z,19.50
2022-08-19T20:16:56.455Z,23.63
2022-08-19T20:19:32.719Z,21.98
2022-08-19T20:22:00.919Z,21.13
2022-08-19T20:24:35.234Z,21.83
2022-08-19T20:27:03.962Z,23.00
2022-08-19T20:29:39.208Z,24.30
2022-08-19T20:32:10.166Z,19.20
2022-08-19T20:34:37.492Z,24.30
2022-08-19T20:37:04.703Z,20.17
2022-08-19T20:39:31.678Z,23.05
2022-08-19T20:42:00.678Z,20.00
2022-08-19T20:44:27.429Z,24.13
2022-08-19T20:46:56.762Z,23.38
2022-08-19T20:49:27.402Z,18.40
2022-08-19T20:51:58.275Z,19.35
2022-08-19T20:54:26.102Z,22.87
2022-08-19T20:56:53.661Z,22.15
2022-08-19T20:59:21.585Z,19.98
2022-08-19T21:01:51.826Z,24.02
2022-08-19T21:04:21.407Z,21.42
2022-08-19T21:06:49.301Z,25.20
2022-08-19T21:09:16.021Z,23.88
2022-08-19T21:11:44.054Z,21.00
2022-08-19T21:14:10.876Z,23.00
2022-08-19T21:16:37.640Z,23.00
2022-08-19T21:19:04.865Z,21.63
2022-08-19T21:21:33.169Z,19.75
2022-08-19T21:23:59.933Z,22.15
2022-08-19T21:26:27.398Z,20.98
2022-08-19T21:28:54.116Z,21.85
2022-08-19T21:31:21.148Z,24.67
2022-08-19T21:33:48.095Z,23.23
2022-08-19T21:36:14.883Z,19.33
2022-08-19T21:38:41.641Z,24.27
2022-08-19T21:41:08.671Z,25.42
2022-08-19T21:43:37.476Z,27.37
2022-08-19T21:46:04.990Z,22.50
2022-08-19T21:48:31.944Z,24.23
2022-08-19T21:50:58.864Z,20.92
2022-08-19T21:53:31.533Z,21.00
2022-08-19T21:56:03.377Z,22.63
2022-08-19T21:58:30.714Z,24.25
2022-08-19T22:01:05.565Z,24.80
2022-08-19T22:03:34.654Z,23.35
2022-08-19T22:06:01.562Z,23.65
2022-08-19T22:08:28.343Z,27.30
2022-08-19T22:10:55.409Z,23.30
2022-08-19T22:13:22.275Z,25.20
2022-08-19T22:15:52.594Z,21.65
2022-08-19T22:18:19.517Z,22.02
2022-08-19T22:20:47.776Z,20.80
2022-08-19T22:23:14.678Z,20.58
2022-08-19T22:25:45.652Z,20.85
2022-08-19T22:28:14.321Z,23.42
2022-08-19T22:30:47.273Z,22.17
2022-08-19T22:33:19.542Z,25.03
2022-08-19T22:35:47.418Z,26.17
2022-08-19T22:38:14.979Z,20.63
2022-08-19T22:40:47.243Z,24.15
2022-08-19T22:43:18.252Z,21.63
2022-08-19T22:45:46.939Z,22.63
2022-08-19T22:48:16.317Z,22.95
2022-08-19T22:51:05.471Z,22.40
2022-08-19T22:53:34.548Z,24.30
2022-08-19T22:56:02.710Z,23.67
2022-08-19T22:58:29.762Z,23.37
2022-08-19T23:00:58.012Z,21.55
2022-08-19T23:03:25.566Z,22.05
2022-08-19T23:05:52.580Z,19.58
2022-08-19T23:08:19.592Z,20.10
2022-08-19T23:10:48.568Z,20.77
2022-08-19T23:13:17.074Z,18.27
2022-08-19T23:15:45.882Z,22.02
2022-08-19T23:18:12.992Z,20.60
2022-08-19T23:20:42.154Z,19.10
2022-08-19T23:23:11.689Z,20.63
2022-08-19T23:25:39.067Z,20.77
2022-08-19T23:28:25.751Z,18.88
2022-08-19T23:30:53.247Z,19.30
2022-08-19T23:33:26.385Z,18.33
2022-08-19T23:36:16.190Z,22.80
2022-08-19T23:38:46.136Z,21.80
2022-08-19T23:41:15.128Z,17.77
2022-08-19T23:43:42.842Z,18.30
2022-08-19T23:46:12.756Z,17.67
2022-08-19T23:48:40.441Z,19.23
2022-08-19T23:51:10.785Z,19.35
2022-08-19T23:53:41.547Z,18.58
2022-08-19T23:56:10.801Z,20.73
2022-08-19T23:58:38.013Z,21.52
